EA1IMW-1
43.14.36N 005.46.93W
IN73CF aprs.fi
zuletzt gehoert:
2023-02-04T21:44:37Z
zuerst gehoert:
2022-06-05T12:27:23Z

APRS IN73CF, 2 Stunde(n), EA1IMW-1 [22:48:42, 0s].
EA1IMW 43.14.36N 005.46.93WIN73CF 0.569km 298°WNW21:44:37ZGRUPO RADIO GALENA (GRG) 430.4500/430.4500 CC1(3EA1IMW-1)
EB1DGC 43.12.60N 005.45.59WIN73CF 3.262km 157°SSE21:43:09ZMMDVM MMDVM HS Hat 433.4500/433.4500 CC1
EA1HWA 43.12.00N 005.47.40WIN73CE 4.261km 195°SSW21:43:33ZMMDVM MMDVM HS Hat 433.4500/433.4500 CC1
EA1HWX 43.19.29N 005.50.96WIN73BH 11.127km 328°NNW21:44:58ZDMO - UHF 439.7250/431.0000 CC11(3EA1HWX-2)
EA1L 43.20.37N 005.51.13WIN73BI 12.980km 332°NNW21:45:13ZWind 026°/003kn, Böen bis 007kn, Temp 7.78c, Regen 0.0mm, letzte 24h 0.0mm, seit 0h 0.0mm, Baro 1036.8h, Hum: 90%(3EA1L-13)
EB1FE 43.19.20N 005.54.00WIN73BH 13.641km 313°NW21:06:46ZMMDVM MMDVM HS Hat 430.4000/430.4000 CC1(3EB1FE-1)
33D00 43.21.63N 005.51.13WIN73BI 15.058km 336°NNW21:01:42Z33-D-00 Protección Civil REMER / Delegación del Gobierno en Asturias
EA1JBU 43.21.85N 005.51.13WIN73BI 15.436km 336°NNW21:00:08ZEA1JBU(3EA1JBU-1)
ED1ZAD 43.07.90N 005.38.52WIN73ED 15.943km 137°SE21:40:43ZED1ZAD-3 APRS Digi/Igate(3ED1ZAD-3)
LEHU 43.22.63N 005.49.57WIN73CJ 16.114km 345°NNW21:30:03ZHelipuerto del HUCA: LEAS 042030Z 11006KT 070V160 9999 FEW020 07/05 Q1038 NOSIG=
ED1ZAU 43.23.04N 005.52.75WIN73BJ 18.365km 333°NNW21:42:39ZRD625 438.5000/430.9000 CC1
EA1ABW 43.24.77N 005.47.77WIN73CJ 19.644km 355°N21:44:17ZMMDVM MMDVM HS Hat 439.8250/439.8250 CC1(3EA1ABW-2)
EA1FLQ 43.22.00N 005.36.35WIN73EI 19.929km 44°NE21:43:20ZMMDVM DVMega 430.9750/430.9750 CC1
LEMR 43.25.83N 005.49.60WIN73CK 21.910km 349°N21:30:03ZAerodromo de la Morgal (123.500MHz): LEAS 042030Z 11006KT 070V160 9999 FEW020 07/05 Q1038 NOSIG=
EA1IPU 43.26.21N 005.46.62WIN73CK 22.243km 360°N21:44:36ZMMDVM MMDVM HS Hat 439.8000/439.8000 CC1(3EA1IPU-1)
LEGM 43.26.15N 005.49.84WIN73CK 22.569km 349°N21:30:03ZHelipuerto de La Morgal (123.500MHz): LEAS 042030Z 11006KT 070V160 9999 FEW020 07/05 Q1038 NOSIG=
ED1ZAS 43.27.52N 005.40.17WIN73DL 26.124km 19°NNE21:42:38ZRD985 438.2250/430.6250 CC1
ED1ZAE 43.27.99N 005.40.54WIN73DL 26.776km 18°NNE21:46:38ZWIDE3-3 ESAS3-3 IN73DL WWW.EA1URG.ORG(3ED1ZAE-3)
EA4ACU 43.29.56N 005.38.92WIN73EL 30.249km 20°NNE21:45:25ZMMDVM MMDVM HS Hat 432.7000/432.7000 CC1(3EA4ACU-1)
ED1ZAY 43.29.47N 005.56.54WIN73AL 31.323km 335°NNW21:42:43ZRD625 438.3000/430.7000 CC1
EB1GEM 43.30.00N 005.36.07WIN73EM 32.497km 26°NNE21:45:06ZWX3in1Plus2.0 U=13.3V,T=??.?C/??.?F(3EB1GEM-3)
EA1FFA 43.31.53N 005.40.64WIN73DM 33.075km 14°NNE21:44:55ZMMDVM MMDVM HS Hat 438.8000/438.8000 CC1(3EA1FFA-1)
EA1DZR 43.31.49N 005.40.00WIN73DM 33.218km 15°NNE21:44:34ZMMDVM MMDVM HS Hat 432.2000/432.2000 CC2(3EA1DZR-2)
MMDVM DMO 434.3500/434.3500 CC1(2EA1DZR-4)
MMDVM DVMega 431.1000/431.1000 CC1(2EA1DZR-1)
EA1HJA 43.28.10N 005.30.45WIN73FL 33.658km 40°NE21:43:15Z IN73FL WX3IN1+ 2.0 - V=14.0V,TX TEMP=41.9C
IN73FL WX3IN1+ 2.0 - V=13.3V,TX TEMP=20.7C(2EA1HJA-2)
EB1TK 43.32.22N 005.42.32WIN73DM 33.864km 10°N21:45:16ZWind 082°/014kn, Böen bis 020kn, Temp 11.11c, Regen 0.0mm, letzte 24h 0.0mm, seit 0h 0.0mm, Baro 1041.8h, Hum: 74%(3EB1TK-13)
EA1FPN 43.32.38N 005.42.17WIN73DM 34.172km 10°N21:44:01ZMMDVM MMDVM HS Hat 439.8750/439.8750 CC1
EA1IEJ 43.32.33N 005.38.92WIN73EM 35.105km 17°NNE21:44:44ZMMDVM MMDVM HS Hat 438.8500/438.8500 CC6(3EA1IEJ-1)
MMDVM DMO 222.3400/222.3400 CC1(2EA1IEJ-11)
LEEL 43.32.98N 005.41.71WIN73DN 35.374km 11°N21:30:03ZHelipuerto de El Musel: LEAS 042030Z 11006KT 070V160 9999 FEW020 07/05 Q1038 NOSIG=
EA1FHR 43.28.72N 005.26.41WIN73GL 38.189km 45°NE21:43:05ZMMDVM MMDVM HS Hat 439.1500/439.1500 CC1
EA1JAY 43.29.33N 005.26.78WIN73GL 38.668km 43°NE21:45:03Z434.525MHz Nodo TETRA DMO(3EA1JAY-4)
EA1JAY(2EA1JAY-2)
EA1JW 43.31.35N 005.28.83WIN73GM 39.724km 37°NE21:44:29ZMMDVM MMDVM HS Hat 436.5000/436.5000 CC1(3EA1JW-3)
EA1AYL 43.29.44N 006.09.04WIN63WL 41.398km 313°NW21:43:16ZMMDVM MMDVM HS Hat 433.0750/433.0750 CC1
LETN 43.20.05N 006.22.69WIN63TI 49.934km 283°WNW21:30:03ZAerodromo de La Curiscada (Tineo): LEAS 042030Z 11006KT 070V160 9999 FEW020 07/05 Q1038 NOSIG=

aprs.pl 5.0.011w DL3EL © 2006-2021 [10386374]